Centralia, Centralia Municipal Airport (KENL)

NameCentralia Municipal Airport
CityCentralia
CountryUnited States
ICAOKENL
IATAENL
Altitude163 m
CoordinatesGoogle Map
Live Air TrafficLiveATC.net
METARKENL 152255Z AUTO 00000KT 10SM BKN020 07/05 A3003 RMK AO2 T00720049
2018-12-15 22:55:00 Wind: North (0°) 0 m/s - Visibility: 16093.4 m - Temperature: 7 °C - Dew point: 5 °C - Humidity: 87.2% - Pressure: 1016.93 hPa

Sorry, no flights used the airport in this database.